createdAt,value
2018-07-11T00:00:20.175Z,13.50
2018-07-11T00:02:50.219Z,13.50
2018-07-11T00:05:21.555Z,13.60
2018-07-11T00:07:51.019Z,13.60
2018-07-11T00:10:20.606Z,13.60
2018-07-11T00:12:50.243Z,13.70
2018-07-11T00:15:19.750Z,13.80
2018-07-11T00:17:50.828Z,13.70
2018-07-11T00:20:21.865Z,13.70
2018-07-11T00:22:52.882Z,13.60
2018-07-11T00:25:23.548Z,13.60
2018-07-11T00:27:53.788Z,13.70
2018-07-11T00:30:24.733Z,13.70
2018-07-11T00:32:57.539Z,13.60
2018-07-11T00:35:27.555Z,13.70
2018-07-11T00:37:59.944Z,13.70
2018-07-11T00:40:32.097Z,13.70
2018-07-11T00:43:02.481Z,13.60
2018-07-11T00:45:32.524Z,13.60
2018-07-11T00:48:04.440Z,13.60
2018-07-11T00:50:35.691Z,13.70
2018-07-11T00:53:06.084Z,13.80
2018-07-11T00:55:38.073Z,13.70
2018-07-11T00:58:22.500Z,13.70
2018-07-11T01:01:03.693Z,13.70
2018-07-11T01:03:39.315Z,13.70
2018-07-11T01:06:10.423Z,13.70
2018-07-11T01:08:42.986Z,13.70
2018-07-11T01:11:18.287Z,13.70
2018-07-11T01:13:49.549Z,13.70
2018-07-11T01:16:23.905Z,13.70
2018-07-11T01:19:00.355Z,13.70
2018-07-11T01:21:31.149Z,13.70
2018-07-11T01:24:02.734Z,13.70
2018-07-11T01:26:41.517Z,13.70
2018-07-11T01:29:13.175Z,13.70
2018-07-11T01:31:44.197Z,13.70
2018-07-11T01:34:13.919Z,13.70
2018-07-11T01:39:42.264Z,13.70
2018-07-11T01:42:12.012Z,13.70
2018-07-11T01:44:43.072Z,13.70
2018-07-11T01:47:12.702Z,13.70
2018-07-11T01:49:44.302Z,13.80
2018-07-11T01:52:26.540Z,13.80
2018-07-11T01:54:56.175Z,13.80
2018-07-11T01:57:25.970Z,13.70
2018-07-11T02:05:49.657Z,13.70
2018-07-11T02:08:19.185Z,13.60
2018-07-11T02:10:50.192Z,13.60
2018-07-11T02:13:20.105Z,13.50
2018-07-11T02:15:50.569Z,13.50
2018-07-11T02:18:22.795Z,13.50
2018-07-11T02:20:53.234Z,13.50
2018-07-11T02:23:23.594Z,13.50
2018-07-11T02:25:55.911Z,13.50
2018-07-11T02:28:25.431Z,13.50
2018-07-11T02:30:56.395Z,13.50
2018-07-11T02:33:27.758Z,13.40
2018-07-11T02:36:11.138Z,13.40
2018-07-11T02:38:40.946Z,13.20
2018-07-11T02:41:14.219Z,13.00
2018-07-11T02:46:44.265Z,12.70
2018-07-11T02:49:15.546Z,12.70
2018-07-11T02:51:46.143Z,12.60
2018-07-11T02:57:13.157Z,12.60
2018-07-11T02:59:43.320Z,12.60
2018-07-11T03:02:20.958Z,12.60
2018-07-11T03:04:51.073Z,12.60
2018-07-11T03:07:20.635Z,12.60
2018-07-11T03:09:51.753Z,12.60
2018-07-11T03:12:21.188Z,12.70
2018-07-11T03:14:52.982Z,12.70
2018-07-11T03:17:23.108Z,12.70
2018-07-11T03:19:54.149Z,12.70
2018-07-11T03:22:23.682Z,12.70
2018-07-11T03:24:53.224Z,12.80
2018-07-11T03:27:23.618Z,12.80
2018-07-11T03:29:58.068Z,12.80
2018-07-11T03:32:30.506Z,12.70
2018-07-11T03:35:02.280Z,12.70
2018-07-11T03:37:32.729Z,12.70
2018-07-11T03:40:02.832Z,12.70
2018-07-11T03:42:33.844Z,12.70
2018-07-11T03:45:03.477Z,12.70
2018-07-11T03:47:33.016Z,12.70
2018-07-11T03:50:03.762Z,12.80
2018-07-11T03:52:35.422Z,12.80
2018-07-11T03:55:05.138Z,12.90
2018-07-11T03:57:35.797Z,12.90
2018-07-11T04:00:06.755Z,12.90
2018-07-11T04:02:36.413Z,12.90
2018-07-11T04:05:10.104Z,12.80
2018-07-11T04:10:34.807Z,12.80
2018-07-11T04:13:05.482Z,12.80
2018-07-11T04:15:35.034Z,12.80
2018-07-11T04:18:04.539Z,12.80
2018-07-11T04:20:34.542Z,12.80
2018-07-11T04:23:05.185Z,12.80
2018-07-11T04:25:34.809Z,12.90
2018-07-11T04:28:06.028Z,13.00
2018-07-11T04:30:35.835Z,13.00
2018-07-11T04:33:05.261Z,13.10
2018-07-11T04:35:34.996Z,13.10
2018-07-11T04:38:05.549Z,13.10
2018-07-11T04:40:35.145Z,13.10
2018-07-11T04:43:04.878Z,13.10
2018-07-11T04:45:34.495Z,13.20
2018-07-11T04:48:04.239Z,13.30
2018-07-11T04:50:34.856Z,13.30
2018-07-11T04:53:09.451Z,13.40
2018-07-11T04:55:39.584Z,13.50
2018-07-11T04:58:11.912Z,13.50
2018-07-11T05:00:41.418Z,13.50
2018-07-11T05:03:10.986Z,13.40
2018-07-11T05:05:40.768Z,13.50
2018-07-11T05:08:31.531Z,13.50
2018-07-11T05:11:00.957Z,13.60
2018-07-11T05:13:31.736Z,13.70
2018-07-11T05:16:01.251Z,13.70
2018-07-11T05:18:33.417Z,13.80
2018-07-11T05:21:03.676Z,13.80
2018-07-11T05:23:33.091Z,13.90
2018-07-11T05:26:03.202Z,14.00
2018-07-11T05:28:33.663Z,14.00
2018-07-11T05:31:03.975Z,14.10
2018-07-11T05:33:33.490Z,14.10
2018-07-11T05:36:03.562Z,14.10
2018-07-11T05:38:34.835Z,14.20
2018-07-11T05:41:04.546Z,14.30
2018-07-11T05:43:34.055Z,14.30
2018-07-11T05:46:04.964Z,14.30
2018-07-11T05:48:35.553Z,14.20
2018-07-11T05:51:05.608Z,14.10
2018-07-11T05:53:36.288Z,14.10
2018-07-11T05:56:05.936Z,14.10
2018-07-11T05:58:37.961Z,14.20
2018-07-11T06:01:08.350Z,14.40
2018-07-11T06:03:42.990Z,14.60
2018-07-11T06:06:13.065Z,15.10
2018-07-11T06:09:01.870Z,15.80
2018-07-11T06:11:32.261Z,16.30
2018-07-11T06:14:02.437Z,16.40
2018-07-11T06:16:32.062Z,16.60
2018-07-11T06:19:01.642Z,17.10
2018-07-11T06:21:31.650Z,17.10
2018-07-11T06:24:02.022Z,17.80
2018-07-11T06:26:32.210Z,17.80
2018-07-11T06:29:02.852Z,17.40
2018-07-11T06:31:34.493Z,16.60
2018-07-11T06:34:04.225Z,16.40
2018-07-11T06:36:33.761Z,17.10
2018-07-11T06:39:03.293Z,17.50
2018-07-11T06:41:35.617Z,18.00
2018-07-11T06:44:05.300Z,18.40
2018-07-11T06:46:41.754Z,18.10
2018-07-11T06:49:11.775Z,17.90
2018-07-11T06:51:41.290Z,18.00
2018-07-11T06:54:12.509Z,17.90
2018-07-11T06:56:42.185Z,18.20
2018-07-11T06:59:11.823Z,18.70
2018-07-11T07:01:41.257Z,18.50
2018-07-11T07:04:10.746Z,17.70
2018-07-11T07:06:41.020Z,17.80
2018-07-11T07:09:10.600Z,18.90
2018-07-11T07:11:40.172Z,19.80
2018-07-11T07:14:09.617Z,19.90
2018-07-11T07:16:39.269Z,19.30
2018-07-11T07:19:08.647Z,18.80
2018-07-11T07:21:38.135Z,18.40
2018-07-11T07:24:08.253Z,18.30
2018-07-11T07:26:37.670Z,18.20
2018-07-11T07:29:07.214Z,18.20
2018-07-11T07:31:36.766Z,18.40
2018-07-11T07:34:06.426Z,18.30
2018-07-11T07:36:35.837Z,18.40
2018-07-11T07:39:05.815Z,18.50
2018-07-11T07:41:35.316Z,18.60
2018-07-11T07:44:04.987Z,19.00
2018-07-11T07:46:34.920Z,19.00
2018-07-11T07:49:04.392Z,18.80
2018-07-11T07:54:31.260Z,19.50
2018-07-11T07:57:00.904Z,19.50
2018-07-11T07:59:30.446Z,19.50
2018-07-11T08:02:00.131Z,19.20
2018-07-11T08:04:29.636Z,19.30
2018-07-11T08:06:59.608Z,19.30
2018-07-11T08:09:29.085Z,18.90
2018-07-11T08:11:58.575Z,18.90
2018-07-11T08:14:27.992Z,18.90
2018-07-11T08:16:57.568Z,19.80
2018-07-11T08:19:27.114Z,21.10
2018-07-11T08:24:36.733Z,22.20
2018-07-11T08:27:20.141Z,21.20
2018-07-11T08:29:58.132Z,20.90
2018-07-11T08:33:35.016Z,20.90
2018-07-11T08:36:15.945Z,20.70
2018-07-11T08:39:01.420Z,20.20
2018-07-11T08:41:42.104Z,20.30
2018-07-11T08:46:27.317Z,20.60
2018-07-11T08:51:11.728Z,21.10
2018-07-11T08:53:52.198Z,21.50
2018-07-11T08:56:32.726Z,19.80
2018-07-11T08:59:31.490Z,19.10
2018-07-11T09:15:45.306Z,18.60
2018-07-11T09:18:23.300Z,18.40
2018-07-11T09:23:15.203Z,18.90
2018-07-11T09:25:44.593Z,18.80
2018-07-11T09:28:14.123Z,19.10
2018-07-11T09:30:43.610Z,19.10
2018-07-11T09:33:13.551Z,19.30
2018-07-11T09:35:43.047Z,19.70
2018-07-11T09:38:12.762Z,20.00
2018-07-11T09:40:42.221Z,20.30
2018-07-11T09:43:12.124Z,20.50
2018-07-11T09:45:42.005Z,20.60
2018-07-11T09:48:11.625Z,20.60
2018-07-11T09:50:41.174Z,20.30
2018-07-11T09:53:10.639Z,20.20
2018-07-11T09:55:40.161Z,20.00
2018-07-11T09:58:09.721Z,20.00
2018-07-11T10:00:44.430Z,20.10
2018-07-11T10:03:15.012Z,20.30
2018-07-11T10:05:44.427Z,20.30
2018-07-11T10:08:13.875Z,20.50
2018-07-11T10:10:43.394Z,20.50
2018-07-11T10:13:12.954Z,20.30
2018-07-11T10:15:42.471Z,20.50
2018-07-11T10:18:12.564Z,20.80
2018-07-11T10:20:42.229Z,20.90
2018-07-11T10:23:11.754Z,20.60
2018-07-11T10:25:41.657Z,20.50
2018-07-11T10:28:19.244Z,20.50
2018-07-11T10:30:49.296Z,21.00
2018-07-11T10:33:18.765Z,22.00
2018-07-11T10:35:48.240Z,22.90
2018-07-11T10:38:17.923Z,23.70
2018-07-11T10:40:47.409Z,25.00
2018-07-11T10:43:16.871Z,25.20
2018-07-11T10:45:46.371Z,24.60
2018-07-11T10:48:15.806Z,23.70
2018-07-11T10:50:45.416Z,22.70
2018-07-11T10:53:14.890Z,22.50
2018-07-11T10:55:44.379Z,22.00
2018-07-11T10:58:14.093Z,22.10
2018-07-11T11:01:05.024Z,21.70
2018-07-11T11:03:13.208Z,21.30
2018-07-11T11:05:42.646Z,20.80
2018-07-11T11:08:12.267Z,20.30
2018-07-11T11:10:42.179Z,20.00
2018-07-11T11:13:11.952Z,19.60
2018-07-11T11:15:42.027Z,19.50
2018-07-11T11:18:12.467Z,19.10
2018-07-11T11:20:42.403Z,18.80
2018-07-11T11:23:12.388Z,18.60
2018-07-11T11:25:42.424Z,18.60
2018-07-11T11:28:12.802Z,18.60
2018-07-11T11:30:42.756Z,18.60
2018-07-11T11:33:13.020Z,18.70
2018-07-11T11:35:42.611Z,18.90
2018-07-11T11:38:12.334Z,19.00
2018-07-11T11:40:41.981Z,19.10
2018-07-11T11:43:11.444Z,19.30
2018-07-11T11:45:42.057Z,19.70
2018-07-11T11:48:11.592Z,19.80
2018-07-11T11:50:41.666Z,19.60
2018-07-11T11:53:11.277Z,19.80
2018-07-11T11:55:40.698Z,20.10
2018-07-11T11:58:10.185Z,20.60
2018-07-11T12:00:39.708Z,21.10
2018-07-11T12:03:09.185Z,21.70
2018-07-11T12:05:38.754Z,21.70
2018-07-11T12:08:08.270Z,21.60
2018-07-11T12:13:06.623Z,21.60
2018-07-11T12:15:36.061Z,22.90
2018-07-11T12:20:34.767Z,26.30
2018-07-11T12:23:04.342Z,26.60
2018-07-11T12:25:34.185Z,25.70
2018-07-11T12:28:03.722Z,25.20
2018-07-11T12:30:33.230Z,25.00
2018-07-11T12:33:02.777Z,24.80
2018-07-11T12:35:32.356Z,24.60
2018-07-11T12:38:02.121Z,24.60
2018-07-11T12:40:31.532Z,24.50
2018-07-11T12:43:01.219Z,24.10
2018-07-11T12:45:30.698Z,23.80
2018-07-11T12:48:05.363Z,23.00
2018-07-11T12:50:34.929Z,22.50
2018-07-11T12:53:04.493Z,22.90
2018-07-11T12:55:34.088Z,23.50
2018-07-11T12:58:03.636Z,25.00
2018-07-11T13:00:33.137Z,25.20
2018-07-11T13:03:02.816Z,24.70
2018-07-11T13:05:32.509Z,25.10
2018-07-11T13:08:02.764Z,24.20
2018-07-11T13:10:32.196Z,23.90
2018-07-11T13:13:01.826Z,23.20
2018-07-11T13:15:31.348Z,23.10
2018-07-11T13:18:01.093Z,23.40
2018-07-11T13:20:30.618Z,23.60
2018-07-11T13:23:01.121Z,23.80
2018-07-11T13:25:30.706Z,23.80
2018-07-11T13:28:00.211Z,23.50
2018-07-11T13:30:29.679Z,23.30
2018-07-11T13:32:59.387Z,22.90
2018-07-11T13:35:28.857Z,22.40
2018-07-11T13:37:59.150Z,22.40
2018-07-11T13:40:28.674Z,22.00
2018-07-11T13:42:58.700Z,21.40
2018-07-11T13:45:29.166Z,21.20
2018-07-11T13:48:02.278Z,21.20
2018-07-11T13:50:41.550Z,21.20
2018-07-11T13:53:11.056Z,21.40
2018-07-11T13:55:41.564Z,21.90
2018-07-11T13:58:11.235Z,21.90
2018-07-11T14:00:40.861Z,21.90
2018-07-11T14:03:20.199Z,22.70
2018-07-11T14:05:50.362Z,23.30
2018-07-11T14:08:20.231Z,24.40
2018-07-11T14:10:49.835Z,25.00
2018-07-11T14:13:19.378Z,25.10
2018-07-11T14:15:49.036Z,24.50
2018-07-11T14:18:18.835Z,24.30
2018-07-11T14:20:48.691Z,23.80
2018-07-11T14:23:28.089Z,24.40
2018-07-11T14:26:00.672Z,25.60
2018-07-11T14:28:31.902Z,26.50
2018-07-11T14:31:02.475Z,25.80
2018-07-11T14:33:33.005Z,24.40
2018-07-11T14:36:02.958Z,23.60
2018-07-11T14:38:32.778Z,22.80
2018-07-11T14:41:03.381Z,22.10
2018-07-11T14:43:33.459Z,21.70
2018-07-11T14:46:04.123Z,21.10
2018-07-11T14:48:33.766Z,21.20
2018-07-11T14:51:03.323Z,21.50
2018-07-11T14:53:32.859Z,21.40
2018-07-11T14:58:31.736Z,21.80
2018-07-11T15:01:01.764Z,21.90
2018-07-11T15:03:31.390Z,23.40
2018-07-11T15:06:00.826Z,25.40
2018-07-11T15:08:30.428Z,27.30
2018-07-11T15:11:00.181Z,28.20
2018-07-11T15:13:29.720Z,28.20
2018-07-11T15:15:59.269Z,27.30
2018-07-11T15:18:28.931Z,26.00
2018-07-11T15:20:58.564Z,25.00
2018-07-11T15:23:28.749Z,24.30
2018-07-11T15:25:58.303Z,24.10
2018-07-11T15:28:27.755Z,24.50
2018-07-11T15:30:58.344Z,23.90
2018-07-11T15:33:29.209Z,23.30
2018-07-11T15:35:58.773Z,22.80
2018-07-11T15:38:28.664Z,22.40
2018-07-11T15:40:59.423Z,21.80
2018-07-11T15:43:29.699Z,21.40
2018-07-11T15:45:59.770Z,20.90
2018-07-11T15:48:29.515Z,20.70
2018-07-11T15:51:00.278Z,20.70
2018-07-11T15:53:30.281Z,20.80
2018-07-11T15:56:01.839Z,21.70
2018-07-11T15:58:35.828Z,22.50
2018-07-11T16:01:07.861Z,22.50
2018-07-11T16:03:47.622Z,22.50
2018-07-11T16:06:18.449Z,22.00
2018-07-11T16:08:53.357Z,22.60
2018-07-11T16:14:09.406Z,24.20
2018-07-11T16:16:44.530Z,24.70
2018-07-11T16:19:16.232Z,24.50
2018-07-11T16:21:58.260Z,23.90
2018-07-11T16:24:33.773Z,23.60
2018-07-11T16:27:04.421Z,23.00
2018-07-11T16:29:36.436Z,22.00
2018-07-11T16:32:13.506Z,21.60
2018-07-11T16:34:49.044Z,21.10
2018-07-11T16:37:22.198Z,20.80
2018-07-11T16:39:53.960Z,21.10
2018-07-11T16:42:25.989Z,21.40
2018-07-11T16:44:59.960Z,21.50
2018-07-11T16:47:32.694Z,21.40
2018-07-11T16:50:05.104Z,21.10
2018-07-11T16:52:39.604Z,20.80
2018-07-11T16:55:15.562Z,20.60
2018-07-11T16:57:51.188Z,20.60
2018-07-11T17:00:37.190Z,20.40
2018-07-11T17:03:22.562Z,20.00
2018-07-11T17:06:02.508Z,19.70
2018-07-11T17:08:45.367Z,19.40
2018-07-11T17:14:05.198Z,18.90
2018-07-11T17:16:45.722Z,18.90
2018-07-11T17:22:16.294Z,18.60
2018-07-11T17:24:50.569Z,18.60
2018-07-11T17:27:25.694Z,18.60
2018-07-11T17:30:04.017Z,18.50
2018-07-11T17:35:11.416Z,18.40
2018-07-11T17:37:46.369Z,18.20
2018-07-11T17:40:19.201Z,18.20
2018-07-11T17:42:54.954Z,18.20
2018-07-11T17:45:31.338Z,18.30
2018-07-11T17:48:15.567Z,18.50
2018-07-11T17:50:46.893Z,18.60
2018-07-11T17:53:22.979Z,18.60
2018-07-11T17:56:06.312Z,18.70
2018-07-11T17:58:58.706Z,18.80
2018-07-11T18:01:44.325Z,18.80
2018-07-11T18:06:41.627Z,18.80
2018-07-11T18:09:14.143Z,18.60
2018-07-11T18:11:59.724Z,18.50
2018-07-11T18:17:11.977Z,18.40
2018-07-11T18:21:57.476Z,18.30
2018-07-11T18:26:49.154Z,18.20
2018-07-11T18:29:34.867Z,17.90
2018-07-11T18:32:39.602Z,17.70
2018-07-11T18:35:22.872Z,17.50
2018-07-11T18:37:59.365Z,17.30
2018-07-11T18:40:37.691Z,17.20
2018-07-11T18:43:20.634Z,17.10
2018-07-11T18:46:35.349Z,16.90
2018-07-11T18:49:22.887Z,16.80
2018-07-11T18:52:16.585Z,16.70
2018-07-11T18:54:57.557Z,16.50
2018-07-11T18:57:36.801Z,16.40
2018-07-11T19:00:28.921Z,16.30
2018-07-11T19:03:23.743Z,16.20
2018-07-11T19:06:11.387Z,16.10
2018-07-11T19:09:10.541Z,16.10
2018-07-11T19:12:08.266Z,16.00
2018-07-11T19:14:43.471Z,16.00
2018-07-11T19:17:26.845Z,16.00
2018-07-11T19:22:12.089Z,15.90
2018-07-11T19:24:55.887Z,15.80
2018-07-11T19:27:33.384Z,15.60
2018-07-11T19:30:18.671Z,15.40
2018-07-11T19:33:03.080Z,15.20
2018-07-11T19:35:51.711Z,15.10
2018-07-11T19:38:34.041Z,15.10
2018-07-11T19:41:24.293Z,15.00
2018-07-11T19:46:08.877Z,14.90
2018-07-11T19:48:46.322Z,14.90
2018-07-11T19:51:38.911Z,14.70
2018-07-11T19:56:50.013Z,14.50
2018-07-11T19:59:20.575Z,14.40
2018-07-11T20:01:50.860Z,14.30
2018-07-11T20:04:21.971Z,14.30
2018-07-11T20:06:53.708Z,14.20
2018-07-11T20:09:24.204Z,14.20
2018-07-11T20:11:56.955Z,14.20
2018-07-11T20:14:30.590Z,14.10
2018-07-11T20:17:02.955Z,14.20
2018-07-11T20:19:34.413Z,14.20
2018-07-11T20:22:06.731Z,14.10
2018-07-11T20:24:38.849Z,14.00
2018-07-11T20:27:10.111Z,14.00
2018-07-11T20:29:41.423Z,13.90
2018-07-11T20:32:12.779Z,13.80
2018-07-11T20:34:44.470Z,13.60
2018-07-11T20:37:15.686Z,13.40
2018-07-11T20:39:47.856Z,13.30
2018-07-11T20:42:18.832Z,13.10
2018-07-11T20:44:49.899Z,13.10
2018-07-11T20:47:21.720Z,13.00
2018-07-11T20:49:54.339Z,12.90
2018-07-11T20:52:26.767Z,12.80
2018-07-11T20:55:00.178Z,12.80
2018-07-11T20:57:31.477Z,12.80
2018-07-11T21:00:13.192Z,12.70
2018-07-11T21:03:12.930Z,12.70
2018-07-11T21:05:54.948Z,12.60
2018-07-11T21:09:55.484Z,12.50
2018-07-11T21:12:42.064Z,12.50
2018-07-11T21:18:29.576Z,12.20
2018-07-11T21:21:06.891Z,12.00
2018-07-11T21:23:37.327Z,11.80
2018-07-11T21:26:09.452Z,11.70
2018-07-11T21:28:48.056Z,11.60
2018-07-11T21:31:25.463Z,11.60
2018-07-11T21:33:58.181Z,11.60
2018-07-11T21:36:29.450Z,11.50
2018-07-11T21:39:01.841Z,11.50
2018-07-11T21:41:33.136Z,11.40
2018-07-11T21:44:10.933Z,11.40
2018-07-11T21:46:47.896Z,11.30
2018-07-11T21:49:23.821Z,11.30
2018-07-11T21:51:55.189Z,11.20
2018-07-11T21:54:26.395Z,11.20
2018-07-11T21:56:58.591Z,11.20
2018-07-11T21:59:30.113Z,11.20
2018-07-11T22:02:00.151Z,11.20
2018-07-11T22:04:37.365Z,11.10
2018-07-11T22:07:08.560Z,11.10
2018-07-11T22:09:39.533Z,11.10
2018-07-11T22:12:10.795Z,11.10
2018-07-11T22:14:42.138Z,11.10
2018-07-11T22:17:23.531Z,11.10
2018-07-11T22:19:53.408Z,11.10
2018-07-11T22:22:22.392Z,11.00
2018-07-11T22:24:55.488Z,11.00
2018-07-11T22:27:26.270Z,11.00
2018-07-11T22:29:56.419Z,10.90
2018-07-11T22:32:25.642Z,11.00
2018-07-11T22:34:54.672Z,11.10
2018-07-11T22:37:22.891Z,11.10
2018-07-11T22:39:51.262Z,11.10
2018-07-11T22:42:19.433Z,11.10
2018-07-11T22:44:48.108Z,11.00
2018-07-11T22:47:16.963Z,11.00
2018-07-11T22:49:50.402Z,11.00
2018-07-11T22:52:19.004Z,11.00
2018-07-11T22:54:47.122Z,10.80
2018-07-11T22:59:45.233Z,10.70
2018-07-11T23:02:14.799Z,10.80
2018-07-11T23:04:43.529Z,10.70
2018-07-11T23:07:12.491Z,10.70
2018-07-11T23:09:41.515Z,10.60
2018-07-11T23:12:09.697Z,10.60
2018-07-11T23:14:38.649Z,10.60
2018-07-11T23:17:07.937Z,10.60
2018-07-11T23:22:06.553Z,10.60
2018-07-11T23:24:35.455Z,10.60
2018-07-11T23:27:03.981Z,10.60
2018-07-11T23:29:32.772Z,10.60
2018-07-11T23:32:01.379Z,10.60
2018-07-11T23:34:31.117Z,10.60
2018-07-11T23:37:00.148Z,10.60
2018-07-11T23:39:29.707Z,10.60
2018-07-11T23:41:58.938Z,10.60
2018-07-11T23:44:28.246Z,10.60
2018-07-11T23:46:57.721Z,10.50
2018-07-11T23:49:26.658Z,10.50
2018-07-11T23:51:55.476Z,10.50
2018-07-11T23:54:24.242Z,10.50
2018-07-11T23:56:53.231Z,10.50
2018-07-11T23:59:22.607Z,10.40
